createdAt,value
2022-10-19T00:00:27.626Z,98937.53
2022-10-19T00:01:27.733Z,98940.27
2022-10-19T00:02:27.802Z,98938.52
2022-10-19T00:03:28.502Z,98938.27
2022-10-19T00:04:27.739Z,98940.28
2022-10-19T00:05:27.949Z,98939.06
2022-10-19T00:06:31.865Z,98940.74
2022-10-19T00:07:28.502Z,98937.39
2022-10-19T00:08:28.671Z,98938.2
2022-10-19T00:09:28.519Z,98941.97
2022-10-19T00:10:28.838Z,98935.48
2022-10-19T00:11:29.111Z,98931.01
2022-10-19T00:12:28.544Z,98934.2
2022-10-19T00:13:28.575Z,98934.6
2022-10-19T00:14:28.597Z,98929.3
2022-10-19T00:15:28.632Z,98932.66
2022-10-19T00:16:30.004Z,98931.28
2022-10-19T00:17:28.757Z,98928.29
2022-10-19T00:18:28.719Z,98925.72
2022-10-19T00:19:28.684Z,98922.78
2022-10-19T00:20:28.685Z,98927.94
2022-10-19T00:21:28.883Z,98929.87
2022-10-19T00:22:28.740Z,98934.34
2022-10-19T00:23:28.783Z,98930.47
2022-10-19T00:24:28.914Z,98932.25
2022-10-19T00:25:28.920Z,98932.91
2022-10-19T00:26:28.822Z,98929.62
2022-10-19T00:27:29.027Z,98925.91
2022-10-19T00:28:29.169Z,98924.64
2022-10-19T00:29:28.814Z,98923.94
2022-10-19T00:30:28.841Z,98920.94
2022-10-19T00:31:29.056Z,98919.67
2022-10-19T00:32:28.877Z,98915.52
2022-10-19T00:33:28.907Z,98916.42
2022-10-19T00:34:28.894Z,98914.42
2022-10-19T00:35:28.882Z,98911.62
2022-10-19T00:36:32.905Z,98909.78
2022-10-19T00:37:29.961Z,98910.42
2022-10-19T00:38:29.786Z,98910.37
2022-10-19T00:39:29.720Z,98912.91
2022-10-19T00:40:29.599Z,98911.09
2022-10-19T00:41:30.568Z,98911.03
2022-10-19T00:42:29.589Z,98902.72
2022-10-19T00:43:30.995Z,98902.77
2022-10-19T00:45:30.778Z,98903.88
2022-10-19T00:46:32.529Z,98902.11
2022-10-19T00:47:31.600Z,98905.23
2022-10-19T00:48:32.896Z,98900.79
2022-10-19T00:49:33.559Z,98904.58
2022-10-19T00:50:31.638Z,98897.2
2022-10-19T00:51:32.887Z,98894.69
2022-10-19T00:52:32.440Z,98896.2
2022-10-19T00:53:31.480Z,98894.56
2022-10-19T00:54:32.835Z,98899.39
2022-10-19T00:55:32.506Z,98896.7
2022-10-19T00:56:32.396Z,98899.03
2022-10-19T00:57:32.411Z,98898.3
2022-10-19T00:58:31.938Z,98896.53
2022-10-19T00:59:32.107Z,98890.09
2022-10-19T01:00:31.862Z,98897.47
2022-10-19T01:01:33.166Z,98895.09
2022-10-19T01:02:31.910Z,98898.73
2022-10-19T01:03:33.111Z,98897.94
2022-10-19T01:04:33.740Z,98898.88
2022-10-19T01:05:33.346Z,98904.14
2022-10-19T01:06:32.663Z,98902.12
2022-10-19T01:07:32.407Z,98898.34
2022-10-19T01:08:31.765Z,98900.72
2022-10-19T01:09:31.720Z,98895.75
2022-10-19T01:11:39.749Z,98894.52
2022-10-19T01:13:46.030Z,98890.42
2022-10-19T01:18:04.884Z,98885.73
2022-10-19T01:20:15.151Z,98887.42
2022-10-19T01:26:34.153Z,98884.64
2022-10-19T01:35:50.066Z,98878.97
2022-10-19T01:37:55.359Z,98873
2022-10-19T01:38:56.650Z,98877.23
2022-10-19T01:39:54.698Z,98877.08
2022-10-19T01:47:03.671Z,98876.56
2022-10-19T01:49:08.390Z,98872.62
2022-10-19T01:52:13.124Z,98874.96
2022-10-19T01:53:11.909Z,98874.75
2022-10-19T01:54:13.596Z,98873.38
2022-10-19T01:55:13.332Z,98871.09
2022-10-19T01:56:12.453Z,98879.95
2022-10-19T01:57:13.882Z,98873.76
2022-10-19T01:58:15.002Z,98872.77
2022-10-19T01:59:12.228Z,98873.68
2022-10-19T02:00:13.334Z,98872.69
2022-10-19T02:01:13.058Z,98869.59
2022-10-19T02:02:13.458Z,98869.7
2022-10-19T02:03:12.686Z,98868.11
2022-10-19T02:04:17.135Z,98869.17
2022-10-19T02:05:14.155Z,98868.88
2022-10-19T02:06:13.723Z,98867.8
2022-10-19T02:07:13.694Z,98870.09
2022-10-19T02:08:20.293Z,98868.34
2022-10-19T02:09:16.716Z,98861.48
2022-10-19T02:10:17.045Z,98865.72
2022-10-19T02:11:16.936Z,98863.58
2022-10-19T02:12:16.766Z,98858.09
2022-10-19T02:13:16.741Z,98869.11
2022-10-19T02:14:18.075Z,98860.09
2022-10-19T02:15:19.360Z,98860.09
2022-10-19T02:17:21.212Z,98863.52
2022-10-19T02:18:19.589Z,98867.44
2022-10-19T02:19:18.438Z,98855.45
2022-10-19T02:20:18.167Z,98864.68
2022-10-19T02:21:18.153Z,98863.13
2022-10-19T02:22:17.761Z,98861.59
2022-10-19T02:23:20.682Z,98864.09
2022-10-19T02:24:17.813Z,98862.49
2022-10-19T02:25:18.368Z,98862.88
2022-10-19T02:26:18.037Z,98863.29
2022-10-19T02:27:18.009Z,98859.28
2022-10-19T02:28:18.128Z,98859.47
2022-10-19T02:29:18.066Z,98861.2
2022-10-19T02:30:19.914Z,98862.31
2022-10-19T02:31:17.855Z,98861.91
2022-10-19T02:32:18.119Z,98860.36
2022-10-19T02:33:18.112Z,98860.89
2022-10-19T02:34:17.933Z,98858.28
2022-10-19T02:35:18.316Z,98853.59
2022-10-19T02:36:18.355Z,98856.59
2022-10-19T02:37:20.989Z,98857.29
2022-10-19T02:38:21.516Z,98858.5
2022-10-19T02:39:20.289Z,98850.61
2022-10-19T02:40:19.915Z,98855.19
2022-10-19T02:41:24.433Z,98853.96
2022-10-19T02:43:24.246Z,98852.8
2022-10-19T02:44:26.147Z,98856.02
2022-10-19T02:45:27.402Z,98858.07
2022-10-19T02:46:27.648Z,98852.34
2022-10-19T02:47:26.935Z,98857.76
2022-10-19T02:48:25.425Z,98859.02
2022-10-19T02:49:24.738Z,98856.94
2022-10-19T02:50:24.088Z,98856.22
2022-10-19T02:51:28.078Z,98856.7
2022-10-19T02:52:24.301Z,98860.58
2022-10-19T02:53:24.304Z,98856.79
2022-10-19T02:54:24.765Z,98850.94
2022-10-19T02:55:24.346Z,98856.42
2022-10-19T02:56:24.373Z,98856.27
2022-10-19T02:57:25.232Z,98862.33
2022-10-19T02:58:24.375Z,98860.91
2022-10-19T02:59:25.056Z,98856.95
2022-10-19T03:00:24.391Z,98861.16
2022-10-19T03:01:24.891Z,98858.48
2022-10-19T03:02:24.667Z,98862.05
2022-10-19T03:03:24.473Z,98858.81
2022-10-19T03:04:24.491Z,98861.52
2022-10-19T03:05:24.462Z,98858.36
2022-10-19T03:06:24.652Z,98857.73
2022-10-19T03:07:24.820Z,98858.88
2022-10-19T03:08:24.474Z,98861.75
2022-10-19T03:09:24.509Z,98858.12
2022-10-19T03:10:24.521Z,98860.39
2022-10-19T03:11:24.591Z,98856.73
2022-10-19T03:12:24.624Z,98859.78
2022-10-19T03:13:24.848Z,98856.97
2022-10-19T03:14:24.563Z,98859.45
2022-10-19T03:15:24.567Z,98865.15
2022-10-19T03:16:24.747Z,98861.45
2022-10-19T03:17:24.587Z,98865.95
2022-10-19T03:18:24.638Z,98862.38
2022-10-19T03:19:24.877Z,98862.02
2022-10-19T03:20:24.643Z,98862.7
2022-10-19T03:21:24.698Z,98863.35
2022-10-19T03:22:24.664Z,98866.06
2022-10-19T03:23:24.683Z,98867.17
2022-10-19T03:24:24.695Z,98864.69
2022-10-19T03:25:24.735Z,98870.16
2022-10-19T03:26:24.777Z,98870.01
2022-10-19T03:27:24.772Z,98864.58
2022-10-19T03:28:24.764Z,98868.66
2022-10-19T03:29:24.795Z,98865.52
2022-10-19T03:30:24.788Z,98868.19
2022-10-19T03:31:24.966Z,98865.86
2022-10-19T03:32:24.796Z,98863.31
2022-10-19T03:34:24.817Z,98866.14
2022-10-19T03:35:25.084Z,98868.27
2022-10-19T03:37:28.235Z,98867.33
2022-10-19T03:38:28.269Z,98867.05
2022-10-19T03:39:28.270Z,98868.08
2022-10-19T03:40:28.273Z,98868.78
2022-10-19T03:41:29.401Z,98869.14
2022-10-19T03:42:28.346Z,98869.91
2022-10-19T03:43:28.323Z,98872.78
2022-10-19T03:44:28.321Z,98878.64
2022-10-19T03:45:28.341Z,98875.7
2022-10-19T03:46:28.394Z,98879.09
2022-10-19T03:47:28.623Z,98880.33
2022-10-19T03:48:28.399Z,98877.09
2022-10-19T03:49:28.390Z,98880.23
2022-10-19T03:50:28.401Z,98875.74
2022-10-19T03:51:29.399Z,98876.25
2022-10-19T03:52:28.462Z,98879.95
2022-10-19T03:53:28.908Z,98879.53
2022-10-19T03:54:28.462Z,98875.88
2022-10-19T03:55:29.833Z,98883.31
2022-10-19T03:56:29.422Z,98881.84
2022-10-19T03:57:28.649Z,98882.69
2022-10-19T03:58:29.002Z,98881.36
2022-10-19T03:59:28.560Z,98885.05
2022-10-19T04:00:28.533Z,98881.36
2022-10-19T04:02:33.062Z,98879.19
2022-10-19T04:03:33.006Z,98880.75
2022-10-19T04:04:33.153Z,98879.97
2022-10-19T04:05:32.944Z,98879.53
2022-10-19T04:06:34.819Z,98882.91
2022-10-19T04:07:33.276Z,98882.41
2022-10-19T04:08:33.274Z,98883.14
2022-10-19T04:09:32.928Z,98885.81
2022-10-19T04:10:32.956Z,98884.23
2022-10-19T04:11:33.727Z,98885.86
2022-10-19T04:12:33.158Z,98885.56
2022-10-19T04:13:33.587Z,98886.53
2022-10-19T04:14:39.361Z,98888.62
2022-10-19T04:15:34.037Z,98893.5
2022-10-19T04:16:34.281Z,98893.97
2022-10-19T04:17:34.373Z,98893.58
2022-10-19T04:18:34.084Z,98893.52
2022-10-19T04:19:34.069Z,98892.45
2022-10-19T04:20:34.078Z,98895.34
2022-10-19T04:21:38.161Z,98893.96
2022-10-19T04:22:34.342Z,98902.62
2022-10-19T04:23:35.147Z,98899.05
2022-10-19T04:24:34.371Z,98900.2
2022-10-19T04:25:34.410Z,98902.7
2022-10-19T04:26:37.851Z,98903.25
2022-10-19T04:27:34.672Z,98899.53
2022-10-19T04:28:34.561Z,98902.11
2022-10-19T04:29:34.786Z,98896.95
2022-10-19T04:30:34.445Z,98902.95
2022-10-19T04:31:34.909Z,98903.77
2022-10-19T04:32:34.476Z,98904.91
2022-10-19T04:33:34.793Z,98907.15
2022-10-19T04:34:37.692Z,98905.52
2022-10-19T04:35:36.352Z,98901.08
2022-10-19T04:36:36.566Z,98907.05
2022-10-19T04:37:36.675Z,98902.33
2022-10-19T04:38:36.755Z,98908.59
2022-10-19T04:39:36.375Z,98906.36
2022-10-19T04:40:36.428Z,98909.64
2022-10-19T04:41:37.381Z,98908.47
2022-10-19T04:42:36.433Z,98916.43
2022-10-19T04:43:37.117Z,98900.95
2022-10-19T04:44:36.471Z,98915.62
2022-10-19T04:45:36.460Z,98912.92
2022-10-19T04:46:36.495Z,98917.18
2022-10-19T04:47:36.675Z,98923.73
2022-10-19T04:48:37.260Z,98922.69
2022-10-19T04:49:36.484Z,98922.7
2022-10-19T04:50:36.554Z,98921.72
2022-10-19T04:51:36.511Z,98912.64
2022-10-19T04:52:36.554Z,98920.83
2022-10-19T04:53:37.706Z,98921.73
2022-10-19T04:54:36.568Z,98926.39
2022-10-19T04:55:40.423Z,98924.7
2022-10-19T04:56:36.652Z,98931.62
2022-10-19T04:57:37.084Z,98924.31
2022-10-19T04:58:36.644Z,98929.68
2022-10-19T04:59:37.609Z,98935.49
2022-10-19T05:00:39.483Z,98939.95
2022-10-19T05:01:36.777Z,98936.65
2022-10-19T05:02:36.702Z,98939.62
2022-10-19T05:03:36.715Z,98935.98
2022-10-19T05:04:41.813Z,98936.62
2022-10-19T05:05:41.368Z,98947.17
2022-10-19T05:06:41.381Z,98942.07
2022-10-19T05:07:41.387Z,98939.9
2022-10-19T05:08:41.777Z,98944.56
2022-10-19T05:09:41.382Z,98949.7
2022-10-19T05:10:44.236Z,98951.94
2022-10-19T05:11:43.238Z,98955.26
2022-10-19T05:12:43.238Z,98954.58
2022-10-19T05:13:43.504Z,98950.74
2022-10-19T05:14:43.265Z,98956.33
2022-10-19T05:15:43.268Z,98957.52
2022-10-19T05:16:43.283Z,98958.54
2022-10-19T05:17:43.387Z,98963.48
2022-10-19T05:18:46.330Z,98960.16
2022-10-19T05:19:43.349Z,98965.96
2022-10-19T05:20:43.326Z,98965.83
2022-10-19T05:21:43.344Z,98962.22
2022-10-19T05:22:43.368Z,98966.98
2022-10-19T05:23:43.950Z,98968.98
2022-10-19T05:24:43.605Z,98972.76
2022-10-19T05:25:43.438Z,98971.42
2022-10-19T05:26:43.420Z,98970.28
2022-10-19T05:27:43.437Z,98974.61
2022-10-19T05:28:47.187Z,98977.38
2022-10-19T05:29:43.452Z,98980.16
2022-10-19T05:30:48.854Z,98978.7
2022-10-19T05:31:45.760Z,98979.88
2022-10-19T05:32:45.434Z,98980.52
2022-10-19T05:33:45.652Z,98983.91
2022-10-19T05:34:45.499Z,98978.18
2022-10-19T05:35:45.454Z,98980.97
2022-10-19T05:36:45.473Z,98979.83
2022-10-19T05:37:45.499Z,98989.52
2022-10-19T05:38:46.293Z,98986.06
2022-10-19T05:39:45.543Z,98990.98
2022-10-19T05:40:47.543Z,98989.41
2022-10-19T05:41:47.259Z,98985.81
2022-10-19T05:42:46.617Z,98983.45
2022-10-19T05:43:47.236Z,98988.47
2022-10-19T05:44:46.663Z,98990.64
2022-10-19T05:45:46.654Z,98997.05
2022-10-19T05:46:46.856Z,98994.91
2022-10-19T05:47:46.669Z,98995.05
2022-10-19T05:48:46.742Z,98998.16
2022-10-19T05:49:47.456Z,98995.02
2022-10-19T05:51:47.609Z,98996.7
2022-10-19T05:52:48.735Z,98996.81
2022-10-19T05:53:46.996Z,98988.18
2022-10-19T05:54:46.894Z,98984.08
2022-10-19T05:55:46.931Z,99003.56
2022-10-19T05:56:47.249Z,99004.73
2022-10-19T05:57:47.171Z,99008.42
2022-10-19T05:58:47.403Z,99007.56
2022-10-19T05:59:47.026Z,98999.98
2022-10-19T06:00:53.818Z,99014.46
2022-10-19T06:01:50.124Z,99016.39
2022-10-19T06:02:50.054Z,99018.2
2022-10-19T06:03:53.844Z,99017.91
2022-10-19T06:04:50.171Z,99023.66
2022-10-19T06:05:51.010Z,99024.87
2022-10-19T06:06:50.546Z,99026.91
2022-10-19T06:07:50.529Z,99026.22
2022-10-19T06:08:51.309Z,99024.58
2022-10-19T06:09:50.601Z,99030.95
2022-10-19T06:10:50.903Z,99032.36
2022-10-19T06:11:50.614Z,99031.08
2022-10-19T06:12:50.593Z,99037.45
2022-10-19T06:13:51.453Z,99036.62
2022-10-19T06:14:51.101Z,99036.66
2022-10-19T06:15:51.013Z,99039.34
2022-10-19T06:16:50.633Z,99028.12
2022-10-19T06:17:50.676Z,99040.7
2022-10-19T06:18:51.983Z,99048.05
2022-10-19T06:19:51.111Z,99043.75
2022-10-19T06:20:51.300Z,99039.09
2022-10-19T06:21:50.712Z,99044.57
2022-10-19T06:22:51.000Z,99045.95
2022-10-19T06:23:55.180Z,99048.84
2022-10-19T06:24:51.390Z,99056.22
2022-10-19T06:25:51.382Z,99054.58
2022-10-19T06:26:51.362Z,99049.59
2022-10-19T06:27:51.422Z,99049.03
2022-10-19T06:28:51.459Z,99056.81
2022-10-19T06:29:51.482Z,99055.62
2022-10-19T06:30:51.524Z,99056.75
2022-10-19T06:31:51.476Z,99055.63
2022-10-19T06:32:51.783Z,99058.36
2022-10-19T06:33:51.543Z,99064.42
2022-10-19T06:34:55.727Z,99069.96
2022-10-19T06:35:52.923Z,99061.33
2022-10-19T06:36:52.936Z,99064.11
2022-10-19T06:37:55.491Z,99065.64
2022-10-19T06:38:53.006Z,99071.14
2022-10-19T06:39:53.048Z,99065.51
2022-10-19T06:40:52.968Z,99069.49
2022-10-19T06:41:52.995Z,99066.42
2022-10-19T06:42:54.993Z,99075.5
2022-10-19T06:43:54.128Z,99077.58
2022-10-19T06:44:53.066Z,99075.22
2022-10-19T06:45:53.426Z,99076.13
2022-10-19T06:46:53.305Z,99083.16
2022-10-19T06:47:53.107Z,99078.29
2022-10-19T06:48:54.154Z,99076.91
2022-10-19T06:49:53.797Z,99084.79
2022-10-19T06:51:00.540Z,99088.12
2022-10-19T06:51:56.730Z,99090.27
2022-10-19T06:52:57.544Z,99092.38
2022-10-19T06:53:57.514Z,99087.38
2022-10-19T06:54:56.826Z,99096.56
2022-10-19T06:55:57.752Z,99092.09
2022-10-19T06:56:56.800Z,99095.75
2022-10-19T06:57:58.300Z,99103.44
2022-10-19T06:58:57.398Z,99098.05
2022-10-19T06:59:56.968Z,99099.03
2022-10-19T07:00:57.830Z,99101.31
2022-10-19T07:01:56.922Z,99108.12
2022-10-19T07:02:58.712Z,99109.26
2022-10-19T07:03:56.946Z,99111.67
2022-10-19T07:04:57.198Z,99107.67
2022-10-19T07:06:01.039Z,99109.75
2022-10-19T07:06:57.215Z,99110.92
2022-10-19T07:07:57.768Z,99112
2022-10-19T07:08:57.271Z,99112.59
2022-10-19T07:09:57.287Z,99115.35
2022-10-19T07:10:58.595Z,99114.53
2022-10-19T07:11:57.313Z,99121.73
2022-10-19T07:12:57.405Z,99112.05
2022-10-19T07:13:57.353Z,99119.96
2022-10-19T07:14:57.408Z,99121.66
2022-10-19T07:15:58.220Z,99112.44
2022-10-19T07:16:57.399Z,99122.03
2022-10-19T07:17:57.388Z,99109.3
2022-10-19T07:18:57.438Z,99117.64
2022-10-19T07:19:57.588Z,99114.53
2022-10-19T07:20:58.062Z,99116.2
2022-10-19T07:21:57.467Z,99115.66
2022-10-19T07:22:57.493Z,99115.69
2022-10-19T07:23:57.536Z,99120.11
2022-10-19T07:24:57.808Z,99117.27
2022-10-19T07:25:57.552Z,99119.8
2022-10-19T07:26:57.565Z,99114.15
2022-10-19T07:27:57.561Z,99117.92
2022-10-19T07:28:57.587Z,99114.38
2022-10-19T07:29:57.605Z,99115.78
2022-10-19T07:30:57.902Z,99121.08
2022-10-19T07:31:57.714Z,99118.83
2022-10-19T07:32:57.880Z,99115
2022-10-19T07:34:01.515Z,99119.58
2022-10-19T07:34:57.713Z,99125.42
2022-10-19T07:36:04.966Z,99120.1
2022-10-19T07:37:01.168Z,99120.33
2022-10-19T07:38:01.170Z,99126.74
2022-10-19T07:39:01.740Z,99121.36
2022-10-19T07:40:01.317Z,99126.8
2022-10-19T07:41:02.587Z,99125.64
2022-10-19T07:42:01.267Z,99129.15
2022-10-19T07:43:01.772Z,99129.44
2022-10-19T07:44:01.812Z,99129.09
2022-10-19T07:45:01.284Z,99124.81
2022-10-19T07:46:05.786Z,99133.25
2022-10-19T07:47:02.009Z,99137.14
2022-10-19T07:48:02.001Z,99145.31
2022-10-19T07:49:02.757Z,99142.92
2022-10-19T07:50:02.072Z,99137.92
2022-10-19T07:51:02.963Z,99141.33
2022-10-19T07:52:02.085Z,99141.75
2022-10-19T07:53:02.089Z,99139.55
2022-10-19T07:54:02.296Z,99141.14
2022-10-19T07:55:02.126Z,99141.14
2022-10-19T07:56:03.021Z,99137.94
2022-10-19T07:57:02.190Z,99145.61
2022-10-19T07:58:02.420Z,99151.62
2022-10-19T07:59:02.733Z,99148.17
2022-10-19T08:00:03.598Z,99147.99
2022-10-19T08:01:03.738Z,99153.17
2022-10-19T08:02:02.400Z,99148.61
2022-10-19T08:03:43.121Z,99152.03
2022-10-19T08:05:09.161Z,99157.2
2022-10-19T08:06:10.232Z,99151.71
2022-10-19T08:07:07.856Z,99154.17
2022-10-19T08:08:07.649Z,99155.22
2022-10-19T08:09:07.740Z,99155.5
2022-10-19T08:10:08.205Z,99158.2
2022-10-19T08:11:12.423Z,99156.17
2022-10-19T08:12:13.812Z,99158.08
2022-10-19T08:13:11.080Z,99161.5
2022-10-19T08:14:11.088Z,99161.38
2022-10-19T08:15:11.354Z,99167.14
2022-10-19T08:17:11.811Z,99172.55
2022-10-19T08:18:11.675Z,99172.55
2022-10-19T08:19:15.467Z,99174.71
2022-10-19T08:20:12.170Z,99164.67
2022-10-19T08:21:12.149Z,99174.91
2022-10-19T08:22:12.422Z,99174.27
2022-10-19T08:23:12.132Z,99175.7
2022-10-19T08:24:15.968Z,99176.94
2022-10-19T08:25:12.831Z,99182.11
2022-10-19T08:26:12.601Z,99182.81
2022-10-19T08:27:12.891Z,99187.8
2022-10-19T08:28:12.823Z,99184.11
2022-10-19T08:29:19.595Z,99182.14
2022-10-19T08:30:16.226Z,99183.17
2022-10-19T08:31:18.271Z,99187.39
2022-10-19T08:32:16.241Z,99184.91
2022-10-19T08:33:16.395Z,99190.02
2022-10-19T08:34:16.888Z,99189.42
2022-10-19T08:35:17.228Z,99189.86
2022-10-19T08:36:16.699Z,99188.31
2022-10-19T08:37:25.924Z,99187.52
2022-10-19T08:38:19.966Z,99194.58
2022-10-19T08:39:19.693Z,99198.66
2022-10-19T08:40:22.777Z,99198.73
2022-10-19T08:42:24.648Z,99197.86
2022-10-19T08:43:30.357Z,99205.66
2022-10-19T08:45:32.271Z,99207.59
2022-10-19T08:46:38.650Z,99211.08
2022-10-19T08:48:33.573Z,99206.77
2022-10-19T08:49:31.703Z,99208.06
2022-10-19T08:51:37.084Z,99211.84
2022-10-19T08:52:35.422Z,99213
2022-10-19T08:55:44.172Z,99214.52
2022-10-19T08:56:52.184Z,99214.91
2022-10-19T09:04:02.613Z,99216.77
2022-10-19T09:05:03.343Z,99215.12
2022-10-19T09:08:06.781Z,99214.28
2022-10-19T09:09:06.512Z,99218.31
2022-10-19T09:11:09.335Z,99219.38
2022-10-19T09:12:06.992Z,99216.61
2022-10-19T09:16:15.498Z,99224.03
2022-10-19T09:17:14.899Z,99226.91
2022-10-19T09:18:18.704Z,99230.34
2022-10-19T09:20:19.442Z,99224.91
2022-10-19T09:23:24.660Z,99227.29
2022-10-19T09:25:25.142Z,99234.02
2022-10-19T09:26:26.897Z,99229.44
2022-10-19T09:27:24.294Z,99235.1
2022-10-19T09:30:27.755Z,99235.16
2022-10-19T09:32:32.616Z,99219.73
2022-10-19T09:34:36.533Z,99233.94
2022-10-19T09:35:37.190Z,99229.61
2022-10-19T09:36:50.069Z,99238.3
2022-10-19T09:37:40.852Z,99231.33
2022-10-19T09:38:37.532Z,99230.3
2022-10-19T09:39:37.522Z,99222.25
2022-10-19T09:40:37.580Z,99233.34
2022-10-19T09:41:43.988Z,99239.66
2022-10-19T09:42:40.868Z,99237.44
2022-10-19T09:43:43.461Z,99232.15
2022-10-19T09:44:40.947Z,99234.59
2022-10-19T09:47:47.725Z,99238.41
2022-10-19T09:48:49.270Z,99239.59
2022-10-19T09:49:46.674Z,99235.53
2022-10-19T09:50:46.072Z,99242.42
2022-10-19T09:51:52.446Z,99235.36
2022-10-19T09:52:49.983Z,99239.14
2022-10-19T09:53:57.619Z,99240.91
2022-10-19T09:54:51.202Z,99238.62
2022-10-19T09:55:53.056Z,99249.88
2022-10-19T09:56:53.319Z,99245.33
2022-10-19T09:57:50.615Z,99249.8
2022-10-19T09:58:51.117Z,99256.01
2022-10-19T09:59:51.269Z,99250.77
2022-10-19T10:00:50.885Z,99248.5
2022-10-19T10:02:52.566Z,99256.5
2022-10-19T10:03:53.881Z,99259.55
2022-10-19T10:04:56.380Z,99259.8
2022-10-19T10:05:52.907Z,99269.19
2022-10-19T10:06:54.368Z,99271.58
2022-10-19T10:07:54.942Z,99270.36
2022-10-19T10:08:54.982Z,99267.3
2022-10-19T10:09:53.051Z,99265.41
2022-10-19T10:10:56.142Z,99274.41
2022-10-19T10:12:53.031Z,99277.56
2022-10-19T10:13:54.349Z,99281.17
2022-10-19T10:14:53.372Z,99287.22
2022-10-19T10:15:57.389Z,99283.59
2022-10-19T10:16:57.702Z,99280.83
2022-10-19T10:17:55.698Z,99279.03
2022-10-19T10:18:56.059Z,99288.64
2022-10-19T10:22:02.963Z,99288.75
2022-10-19T10:23:03.067Z,99286.92
2022-10-19T10:25:02.662Z,99300.46
2022-10-19T10:26:03.073Z,99300.08
2022-10-19T10:27:03.716Z,99299.36
2022-10-19T10:29:03.405Z,99301.08
2022-10-19T10:30:07.773Z,99303.09
2022-10-19T10:31:05.781Z,99302.32
2022-10-19T10:32:06.112Z,99302.78
2022-10-19T10:33:13.333Z,99301.64
2022-10-19T10:34:23.182Z,99305.84
2022-10-19T10:35:17.718Z,99305.27
2022-10-19T10:36:10.413Z,99307.77
2022-10-19T10:37:18.434Z,99305.53
2022-10-19T10:38:14.331Z,99305.72
2022-10-19T10:39:16.604Z,99304.41
2022-10-19T10:41:18.038Z,99305.67
2022-10-19T10:42:18.799Z,99312.17
2022-10-19T10:43:17.874Z,99309.77
2022-10-19T10:44:19.514Z,99306.02
2022-10-19T10:45:30.488Z,99306.71
2022-10-19T10:46:27.049Z,99303.36
2022-10-19T10:47:25.051Z,99305.27
2022-10-19T10:50:34.818Z,99316.97
2022-10-19T10:52:34.770Z,99310.98
2022-10-19T10:53:36.140Z,99320.98
2022-10-19T10:54:34.519Z,99319.76
2022-10-19T10:55:34.980Z,99313.99
2022-10-19T10:56:34.568Z,99318.42
2022-10-19T10:57:38.550Z,99315.42
2022-10-19T10:58:38.685Z,99311.17
2022-10-19T10:59:43.056Z,99328.54
2022-10-19T11:00:37.137Z,99320.53
2022-10-19T11:01:40.009Z,99330.75
2022-10-19T11:02:42.585Z,99330.28
2022-10-19T11:03:41.962Z,99329.89
2022-10-19T11:04:40.965Z,99323.17
2022-10-19T11:05:41.809Z,99322.01
2022-10-19T11:06:44.525Z,99325.86
2022-10-19T11:07:43.601Z,99322.31
2022-10-19T11:11:53.511Z,99329.83
2022-10-19T11:12:56.258Z,99332.56
2022-10-19T11:17:06.072Z,99333.88
2022-10-19T11:20:07.364Z,99334.55
2022-10-19T11:23:18.117Z,99327.24
2022-10-19T11:30:32.594Z,99331.94
2022-10-19T11:35:45.544Z,99345.46
2022-10-19T11:36:49.954Z,99338.27
2022-10-19T11:50:31.170Z,99344.87
2022-10-19T11:51:27.710Z,99341
2022-10-19T11:56:51.265Z,99361.57
2022-10-19T11:57:30.961Z,99362.72
2022-10-19T11:58:35.060Z,99361.21
2022-10-19T11:59:45.745Z,99368.14
2022-10-19T12:00:39.813Z,99359.91
2022-10-19T12:08:02.426Z,99366.88
2022-10-19T12:09:12.970Z,99368.27
2022-10-19T12:10:06.819Z,99367.59
2022-10-19T12:13:10.491Z,99367.83
2022-10-19T12:14:12.626Z,99364.47
2022-10-19T12:16:14.063Z,99366.63
2022-10-19T12:20:25.143Z,99372.91
2022-10-19T12:22:28.119Z,99367.08
2022-10-19T12:23:29.992Z,99376.27
2022-10-19T12:24:27.841Z,99375.4
2022-10-19T12:25:26.939Z,99366.31
2022-10-19T12:26:29.385Z,99387.72
2022-10-19T12:27:29.687Z,99378.05
2022-10-19T12:28:31.064Z,99382.84
2022-10-19T12:29:33.114Z,99377.34
2022-10-19T12:30:29.526Z,99381.95
2022-10-19T12:31:30.358Z,99380.59
2022-10-19T12:32:33.688Z,99386.64
2022-10-19T12:37:44.461Z,99392.68
2022-10-19T12:38:49.464Z,99396.02
2022-10-19T12:42:51.134Z,99406.62
2022-10-19T12:47:00.829Z,99412.72
2022-10-19T12:50:07.433Z,99416.19
2022-10-19T12:51:07.870Z,99418.54
2022-10-19T12:52:06.235Z,99419.89
2022-10-19T12:53:06.068Z,99417.48
2022-10-19T12:54:08.332Z,99418.59
2022-10-19T12:58:20.624Z,99424.52
2022-10-19T12:59:23.306Z,99417.95
2022-10-19T13:00:21.913Z,99427.88
2022-10-19T13:01:27.807Z,99426.98
2022-10-19T13:02:27.399Z,99424.52
2022-10-19T13:03:29.082Z,99429.64
2022-10-19T13:04:27.749Z,99426.17
2022-10-19T13:05:28.804Z,99435.85
2022-10-19T13:06:31.295Z,99437.17
2022-10-19T13:07:32.200Z,99439.06
2022-10-19T13:08:40.856Z,99434.91
2022-10-19T13:09:36.935Z,99438.67
2022-10-19T13:10:33.831Z,99433.59
2022-10-19T13:12:44.345Z,99436.24
2022-10-19T13:14:51.054Z,99435.38
2022-10-19T13:15:51.500Z,99437.46
2022-10-19T13:17:45.854Z,99444.67
2022-10-19T13:19:48.889Z,99447.54
2022-10-19T13:20:53.072Z,99449.58
2022-10-19T13:34:18.981Z,99472.83
2022-10-19T13:36:21.714Z,99465.69
2022-10-19T13:37:21.705Z,99465.66
2022-10-19T13:38:23.417Z,99466.09
2022-10-19T13:39:21.596Z,99471.57
2022-10-19T13:40:24.518Z,99468.97
2022-10-19T13:41:23.488Z,99467.11
2022-10-19T13:42:25.853Z,99470.06
2022-10-19T13:43:24.910Z,99462.94
2022-10-19T13:44:30.989Z,99465.85
2022-10-19T13:45:23.173Z,99461.04
2022-10-19T13:47:34.341Z,99467.8
2022-10-19T13:48:37.854Z,99459.7
2022-10-19T13:49:43.511Z,99463.59
2022-10-19T14:00:13.672Z,99473.22
2022-10-19T14:03:20.260Z,99479.09
2022-10-19T14:04:20.522Z,99484.26
2022-10-19T14:05:24.338Z,99484.98
2022-10-19T14:07:23.885Z,99489.08
2022-10-19T14:10:33.061Z,99488.66
2022-10-19T14:11:43.828Z,99490.7
2022-10-19T14:12:33.752Z,99495.09
2022-10-19T14:13:31.063Z,99493.82
2022-10-19T14:14:30.596Z,99494.14
2022-10-19T14:15:34.248Z,99497.06
2022-10-19T14:16:30.836Z,99504.77
2022-10-19T14:17:31.283Z,99508.09
2022-10-19T14:18:32.641Z,99504.87
2022-10-19T14:19:32.976Z,99508.3
2022-10-19T14:20:38.046Z,99509.28
2022-10-19T14:21:34.998Z,99512.45
2022-10-19T14:22:35.830Z,99510.83
2022-10-19T14:23:35.919Z,99505.7
2022-10-19T14:24:35.547Z,99515.71
2022-10-19T14:25:34.923Z,99514.38
2022-10-19T14:26:34.722Z,99514.03
2022-10-19T14:27:35.616Z,99513.17
2022-10-19T14:28:34.971Z,99515.17
2022-10-19T14:29:42.256Z,99514.18
2022-10-19T14:30:39.023Z,99518.32
2022-10-19T14:31:39.262Z,99512.17
2022-10-19T14:33:40.402Z,99520.7
2022-10-19T14:34:40.042Z,99519.12
2022-10-19T14:35:40.227Z,99519.96
2022-10-19T14:36:42.891Z,99524.28
2022-10-19T14:37:43.096Z,99525.7
2022-10-19T14:38:41.265Z,99525.11
2022-10-19T14:39:39.748Z,99527.64
2022-10-19T14:40:41.333Z,99526.7
2022-10-19T14:41:39.711Z,99524.47
2022-10-19T14:42:41.363Z,99529.11
2022-10-19T14:43:39.775Z,99529.78
2022-10-19T14:44:41.914Z,99531.2
2022-10-19T14:45:39.846Z,99534.62
2022-10-19T14:46:40.062Z,99534.86
2022-10-19T14:47:50.701Z,99533.36
2022-10-19T14:48:43.673Z,99538.45
2022-10-19T14:49:42.576Z,99537.06
2022-10-19T14:50:47.012Z,99535.15